sensor_id;sensor_type;location;lat;lon;timestamp;P1;durP1;ratioP1;P2;durP2;ratioP2
35243;SDS011;37916;52.160;21.066;2023-01-01T00:06:20;10.52;;;6.05;;
35243;SDS011;37916;52.160;21.066;2023-01-01T00:16:21;7.55;;;4.68;;
35243;SDS011;37916;52.160;21.066;2023-01-01T00:26:25;9.20;;;5.13;;
35243;SDS011;37916;52.160;21.066;2023-01-01T00:36:29;9.43;;;5.20;;
35243;SDS011;37916;52.160;21.066;2023-01-01T00:46:33;7.25;;;4.75;;
35243;SDS011;37916;52.160;21.066;2023-01-01T00:56:37;9.32;;;4.50;;
35243;SDS011;37916;52.160;21.066;2023-01-01T01:06:40;9.00;;;4.90;;
35243;SDS011;37916;52.160;21.066;2023-01-01T01:16:46;7.30;;;4.20;;
35243;SDS011;37916;52.160;21.066;2023-01-01T01:26:50;9.20;;;4.30;;
35243;SDS011;37916;52.160;21.066;2023-01-01T01:36:52;8.63;;;4.53;;
35243;SDS011;37916;52.160;21.066;2023-01-01T02:07:36;8.63;;;5.32;;
35243;SDS011;37916;52.160;21.066;2023-01-01T03:10:42;6.90;;;4.35;;
35243;SDS011;37916;52.160;21.066;2023-01-01T03:20:50;6.32;;;4.25;;
35243;SDS011;37916;52.160;21.066;2023-01-01T03:30:58;8.30;;;3.78;;
35243;SDS011;37916;52.160;21.066;2023-01-01T03:41:01;6.07;;;3.45;;
35243;SDS011;37916;52.160;21.066;2023-01-01T04:02:02;6.47;;;3.72;;
35243;SDS011;37916;52.160;21.066;2023-01-01T04:12:08;6.20;;;3.33;;
35243;SDS011;37916;52.160;21.066;2023-01-01T04:22:10;5.28;;;3.17;;
35243;SDS011;37916;52.160;21.066;2023-01-01T04:32:13;5.72;;;3.17;;
35243;SDS011;37916;52.160;21.066;2023-01-01T04:52:21;5.13;;;2.67;;
35243;SDS011;37916;52.160;21.066;2023-01-01T05:02:22;4.38;;;2.70;;
35243;SDS011;37916;52.160;21.066;2023-01-01T05:12:22;5.97;;;2.65;;
35243;SDS011;37916;52.160;21.066;2023-01-01T05:22:23;6.78;;;2.40;;
35243;SDS011;37916;52.160;21.066;2023-01-01T05:32:24;4.13;;;2.38;;
35243;SDS011;37916;52.160;21.066;2023-01-01T05:42:25;4.10;;;2.42;;
35243;SDS011;37916;52.160;21.066;2023-01-01T05:52:26;5.82;;;2.53;;
35243;SDS011;37916;52.160;21.066;2023-01-01T06:02:29;4.75;;;2.10;;
35243;SDS011;37916;52.160;21.066;2023-01-01T06:12:31;5.15;;;2.38;;
35243;SDS011;37916;52.160;21.066;2023-01-01T06:22:34;3.58;;;2.20;;
35243;SDS011;37916;52.160;21.066;2023-01-01T06:32:38;4.97;;;2.00;;
35243;SDS011;37916;52.160;21.066;2023-01-01T06:42:42;4.60;;;2.53;;
35243;SDS011;37916;52.160;21.066;2023-01-01T06:52:43;6.22;;;2.30;;
35243;SDS011;37916;52.160;21.066;2023-01-01T07:02:47;4.30;;;2.40;;
35243;SDS011;37916;52.160;21.066;2023-01-01T07:12:51;5.68;;;2.25;;
35243;SDS011;37916;52.160;21.066;2023-01-01T07:22:52;2.85;;;1.60;;
35243;SDS011;37916;52.160;21.066;2023-01-01T07:32:55;4.87;;;1.97;;
35243;SDS011;37916;52.160;21.066;2023-01-01T08:35:11;6.10;;;2.40;;
35243;SDS011;37916;52.160;21.066;2023-01-01T08:45:15;4.90;;;2.10;;
35243;SDS011;37916;52.160;21.066;2023-01-01T08:55:16;7.25;;;3.00;;
35243;SDS011;37916;52.160;21.066;2023-01-01T09:05:17;6.28;;;2.58;;
35243;SDS011;37916;52.160;21.066;2023-01-01T09:15:18;9.05;;;2.55;;
35243;SDS011;37916;52.160;21.066;2023-01-01T09:25:25;7.38;;;2.63;;
35243;SDS011;37916;52.160;21.066;2023-01-01T09:35:26;7.75;;;2.65;;
35243;SDS011;37916;52.160;21.066;2023-01-01T09:45:31;6.82;;;2.05;;
35243;SDS011;37916;52.160;21.066;2023-01-01T10:43:27;6.68;;;1.63;;
35243;SDS011;37916;52.160;21.066;2023-01-01T11:03:50;6.63;;;2.25;;
35243;SDS011;37916;52.160;21.066;2023-01-01T11:13:58;8.40;;;1.98;;
35243;SDS011;37916;52.160;21.066;2023-01-01T11:34:34;7.40;;;1.92;;
35243;SDS011;37916;52.160;21.066;2023-01-01T11:44:39;9.82;;;2.03;;
35243;SDS011;37916;52.160;21.066;2023-01-01T11:54:43;8.77;;;1.70;;
35243;SDS011;37916;52.160;21.066;2023-01-01T12:04:47;9.93;;;2.55;;
35243;SDS011;37916;52.160;21.066;2023-01-01T12:14:58;8.70;;;2.13;;
35243;SDS011;37916;52.160;21.066;2023-01-01T12:25:00;9.23;;;2.30;;
35243;SDS011;37916;52.160;21.066;2023-01-01T12:35:08;7.07;;;2.15;;
35243;SDS011;37916;52.160;21.066;2023-01-01T12:45:25;6.57;;;2.28;;
35243;SDS011;37916;52.160;21.066;2023-01-01T13:05:56;8.93;;;2.50;;
35243;SDS011;37916;52.160;21.066;2023-01-01T13:15:59;4.70;;;2.00;;
35243;SDS011;37916;52.160;21.066;2023-01-01T14:27:42;8.27;;;2.70;;
35243;SDS011;37916;52.160;21.066;2023-01-01T14:37:46;6.45;;;3.35;;
35243;SDS011;37916;52.160;21.066;2023-01-01T14:47:47;4.78;;;2.47;;
35243;SDS011;37916;52.160;21.066;2023-01-01T15:08:00;7.80;;;3.08;;
35243;SDS011;37916;52.160;21.066;2023-01-01T16:00:26;6.28;;;3.08;;
35243;SDS011;37916;52.160;21.066;2023-01-01T16:10:34;7.50;;;3.30;;
35243;SDS011;37916;52.160;21.066;2023-01-01T16:41:56;7.47;;;3.70;;
35243;SDS011;37916;52.160;21.066;2023-01-01T16:51:57;7.22;;;3.40;;
35243;SDS011;37916;52.160;21.066;2023-01-01T17:02:03;7.50;;;3.60;;
35243;SDS011;37916;52.160;21.066;2023-01-01T17:12:41;7.13;;;3.88;;
35243;SDS011;37916;52.160;21.066;2023-01-01T17:22:43;7.85;;;3.92;;
35243;SDS011;37916;52.160;21.066;2023-01-01T17:32:47;9.77;;;4.20;;
35243;SDS011;37916;52.160;21.066;2023-01-01T17:42:51;9.87;;;4.77;;
35243;SDS011;37916;52.160;21.066;2023-01-01T18:03:26;7.95;;;4.15;;
35243;SDS011;37916;52.160;21.066;2023-01-01T18:13:34;12.82;;;5.07;;
35243;SDS011;37916;52.160;21.066;2023-01-01T18:23:38;7.55;;;4.75;;
35243;SDS011;37916;52.160;21.066;2023-01-01T18:44:00;8.70;;;4.57;;
35243;SDS011;37916;52.160;21.066;2023-01-01T19:04:14;9.07;;;5.22;;
35243;SDS011;37916;52.160;21.066;2023-01-01T19:24:29;9.70;;;5.10;;
35243;SDS011;37916;52.160;21.066;2023-01-01T19:44:48;10.30;;;5.68;;
35243;SDS011;37916;52.160;21.066;2023-01-01T19:54:49;12.48;;;6.50;;
35243;SDS011;37916;52.160;21.066;2023-01-01T20:04:50;10.60;;;6.38;;
35243;SDS011;37916;52.160;21.066;2023-01-01T20:14:51;10.05;;;5.78;;
35243;SDS011;37916;52.160;21.066;2023-01-01T20:24:52;10.68;;;6.13;;
